Time;durP1;ratioP1;P1;durP2;ratioP2;P2;SDS_P1;SDS_P2;PMS_P1;PMS_P2;Temp;Humidity;BMP_temperature;BMP_pressure;BME280_temperature;BME280_humidity;BME280_pressure;Samples;Min_cycle;Max_cycle;Signal;HPM_P1;HPM_P2
2021/03/06 00:00:42;;;;;;;;;;;;;;;16.63;35.56;101457.03;4413599;32;20544;-51
2021/03/06 00:03:08;;;;;;;;;;;;;;;16.67;35.48;101464.22;4413480;32;19954;-49
2021/03/06 00:05:34;;;;;;;;;;;;;;;16.70;35.44;101464.34;4413750;32;20377;-48
2021/03/06 00:08:00;;;;;;;;;;;;;;;16.66;35.45;101467.69;4412489;32;19966;-50
2021/03/06 00:10:26;;;;;;;;;;;;;;;16.57;35.60;101463.78;4413810;32;19968;-48
2021/03/06 00:12:52;;;;;;;;;;;;;;;16.53;35.67;101461.84;4413722;32;19950;-52
2021/03/06 00:15:17;;;;;;;;;;;;;;;16.52;35.71;101459.16;4413376;32;19958;-48
2021/03/06 00:17:43;;;;;;;;;;;;;;;16.53;35.61;101468.84;4413073;32;19970;-52
2021/03/06 00:20:09;;;;;;;;;;;;;;;16.44;35.77;101466.69;4416686;32;19995;-52
2021/03/06 00:22:35;;;;;;;;;;;;;;;16.45;35.82;101473.75;4416175;32;20302;-48
2021/03/06 00:25:01;;;;;;;;;;;;;;;16.52;35.64;101470.59;4416444;32;19953;-49
2021/03/06 00:27:27;;;;;;;;;;;;;;;16.61;35.45;101471.84;4416464;32;19953;-50
2021/03/06 00:29:53;;;;;;;;;;;;;;;16.56;35.49;101475.13;4417065;32;19994;-48
2021/03/06 00:32:19;;;;;;;;;;;;;;;16.52;35.62;101475.84;4415900;32;19978;-49
2021/03/06 00:34:45;;;;;;;;;;;;;;;16.51;35.58;101481.00;4417309;32;20321;-51
2021/03/06 00:37:11;;;;;;;;;;;;;;;16.43;35.72;101476.31;4411093;32;20632;-52
2021/03/06 00:39:37;;;;;;;;;;;;;;;16.49;35.63;101474.78;4416634;32;19989;-50
2021/03/06 00:42:03;;;;;;;;;;;;;;;16.51;35.50;101478.38;4417262;32;20037;-48
2021/03/06 00:44:29;;;;;;;;;;;;;;;16.46;35.61;101478.16;4416086;32;19976;-51
2021/03/06 00:46:56;;;;;;;;;;;;;;;16.49;35.58;101478.34;4415389;32;19955;-49
2021/03/06 00:49:21;;;;;;;;;;;;;;;16.43;35.61;101475.41;4416231;32;20066;-48
2021/03/06 00:51:47;;;;;;;;;;;;;;;16.42;35.66;101478.88;4415847;32;19954;-49
2021/03/06 00:54:13;;;;;;;;;;;;;;;16.40;35.72;101477.91;4414950;32;19997;-51
2021/03/06 00:56:39;;;;;;;;;;;;;;;16.39;35.67;101476.09;4416580;32;19965;-50
2021/03/06 00:59:05;;;;;;;;;;;;;;;16.42;35.63;101466.63;4415051;32;20280;-51
2021/03/06 01:01:31;;;;;;;;;;;;;;;16.42;35.58;101469.25;4415864;32;19958;-52
2021/03/06 01:03:57;;;;;;;;;;;;;;;16.42;35.61;101473.63;4416721;32;19954;-52
2021/03/06 01:06:23;;;;;;;;;;;;;;;16.37;35.65;101469.88;4414678;32;20040;-51
2021/03/06 01:08:48;;;;;;;;;;;;;;;16.39;35.64;101473.47;4415760;32;19954;-51
2021/03/06 01:11:14;;;;;;;;;;;;;;;16.37;35.70;101475.13;4415894;32;20408;-47
2021/03/06 01:13:40;;;;;;;;;;;;;;;16.34;35.65;101474.97;4415173;32;20093;-49
2021/03/06 01:16:06;;;;;;;;;;;;;;;16.34;35.70;101465.38;4415654;32;20045;-45
2021/03/06 01:18:32;;;;;;;;;;;;;;;16.34;35.71;101470.63;4415927;32;19976;-50
2021/03/06 01:20:58;;;;;;;;;;;;;;;16.36;35.65;101473.31;4415588;32;20383;-52
2021/03/06 01:23:24;;;;;;;;;;;;;;;16.43;35.42;101470.16;4415391;32;19969;-50
2021/03/06 01:25:50;;;;;;;;;;;;;;;16.43;35.37;101468.44;4416131;32;19995;-50
2021/03/06 01:28:16;;;;;;;;;;;;;;;16.43;35.38;101464.88;4413474;32;20303;-48
2021/03/06 01:30:41;;;;;;;;;;;;;;;16.47;35.31;101463.31;4414964;32;19961;-51
2021/03/06 01:33:08;;;;;;;;;;;;;;;16.34;35.51;101469.72;4414970;32;20001;-50
2021/03/06 01:35:33;;;;;;;;;;;;;;;16.33;35.55;101462.66;4415514;32;20009;-51
2021/03/06 01:37:59;;;;;;;;;;;;;;;16.39;35.37;101473.47;4414882;32;20026;-51
2021/03/06 01:40:25;;;;;;;;;;;;;;;16.41;35.25;101466.56;4414772;32;19980;-51
2021/03/06 01:42:51;;;;;;;;;;;;;;;16.30;35.49;101459.06;4411829;32;19963;-52
2021/03/06 01:45:17;;;;;;;;;;;;;;;16.32;35.50;101467.03;4415104;32;19962;-48
2021/03/06 01:47:43;;;;;;;;;;;;;;;16.25;35.50;101457.97;4414455;32;19993;-53
2021/03/06 01:50:09;;;;;;;;;;;;;;;16.35;35.38;101461.00;4414917;32;19964;-51
2021/03/06 01:52:35;;;;;;;;;;;;;;;16.30;35.42;101459.06;4415644;32;19958;-50
2021/03/06 01:55:01;;;;;;;;;;;;;;;16.29;35.41;101462.53;4416021;32;19987;-50
2021/03/06 01:57:27;;;;;;;;;;;;;;;16.22;35.53;101460.44;4414429;32;19973;-52
2021/03/06 01:59:52;;;;;;;;;;;;;;;16.27;35.37;101456.31;4415952;32;20137;-49
2021/03/06 02:02:18;;;;;;;;;;;;;;;16.27;35.42;101464.19;4414781;32;19997;-50
2021/03/06 02:04:44;;;;;;;;;;;;;;;16.31;35.30;101465.25;4414726;32;20766;-47
2021/03/06 02:07:10;;;;;;;;;;;;;;;16.14;35.62;101460.06;4414379;32;19965;-52
2021/03/06 02:09:36;;;;;;;;;;;;;;;16.09;35.77;101460.69;4415675;32;19995;-52
2021/03/06 02:12:02;;;;;;;;;;;;;;;16.17;35.61;101456.69;4414083;32;19958;-48
2021/03/06 02:14:28;;;;;;;;;;;;;;;16.13;35.66;101458.28;4415301;32;20310;-50
2021/03/06 02:16:54;;;;;;;;;;;;;;;16.02;35.77;101454.22;4417662;32;20883;-52
2021/03/06 02:19:19;;;;;;;;;;;;;;;16.05;35.79;101458.75;4424548;32;20040;-50
2021/03/06 02:21:45;;;;;;;;;;;;;;;15.91;36.05;101464.25;4410903;32;19969;-52
2021/03/06 02:24:11;;;;;;;;;;;;;;;15.95;35.91;101471.44;4414576;32;19995;-51
2021/03/06 02:26:39;;;;;;;;;;;;;;;16.03;35.75;101466.53;4410993;32;19954;-47
2021/03/06 02:29:05;;;;;;;;;;;;;;;15.97;35.81;101469.78;4410878;32;19970;-52
2021/03/06 02:31:31;;;;;;;;;;;;;;;16.00;35.75;101464.69;4409080;32;19957;-49
2021/03/06 02:33:57;;;;;;;;;;;;;;;15.95;35.79;101460.94;4419719;32;19995;-52
2021/03/06 02:36:23;;;;;;;;;;;;;;;15.87;36.01;101463.16;4410057;32;20048;-49
2021/03/06 02:38:48;;;;;;;;;;;;;;;16.01;35.75;101461.22;4413014;32;19965;-51
2021/03/06 02:41:14;;;;;;;;;;;;;;;15.86;36.03;101457.81;4413481;32;20491;-51
2021/03/06 02:43:40;;;;;;;;;;;;;;;15.73;36.21;101462.47;4407086;32;19970;-52
2021/03/06 02:46:06;;;;;;;;;;;;;;;15.79;36.15;101463.63;4412448;32;19962;-50
2021/03/06 02:48:32;;;;;;;;;;;;;;;15.73;36.28;101472.09;4417553;32;19962;-52
2021/03/06 02:50:58;;;;;;;;;;;;;;;15.78;36.16;101472.31;4421757;32;19969;-51
2021/03/06 02:53:24;;;;;;;;;;;;;;;15.72;36.23;101473.81;4415967;32;19972;-50
2021/03/06 02:55:50;;;;;;;;;;;;;;;15.88;35.98;101470.19;4416667;32;19973;-47
2021/03/06 02:58:16;;;;;;;;;;;;;;;15.96;35.79;101467.09;4412990;32;19977;-48
2021/03/06 03:00:42;;;;;;;;;;;;;;;15.90;35.87;101472.94;4416767;32;19954;-50
2021/03/06 03:03:08;;;;;;;;;;;;;;;15.94;35.85;101464.37;4414497;32;19958;-52
2021/03/06 03:05:34;;;;;;;;;;;;;;;15.95;35.80;101471.44;4413304;32;20729;-51
2021/03/06 03:08:00;;;;;;;;;;;;;;;15.79;36.06;101463.63;4413948;32;20002;-52
2021/03/06 03:10:25;;;;;;;;;;;;;;;15.62;36.41;101466.31;4414410;32;20013;-51
2021/03/06 03:12:51;;;;;;;;;;;;;;;15.50;36.65;101473.59;4414259;32;19962;-48
2021/03/06 03:15:17;;;;;;;;;;;;;;;15.60;36.46;101474.13;4414453;32;19974;-51
2021/03/06 03:17:43;;;;;;;;;;;;;;;15.61;36.46;101480.25;4412441;32;20005;-48
2021/03/06 03:20:09;;;;;;;;;;;;;;;15.49;36.63;101483.19;4412700;32;20346;-47
2021/03/06 03:22:35;;;;;;;;;;;;;;;15.47;36.71;101476.94;4414404;32;20063;-52
2021/03/06 03:25:01;;;;;;;;;;;;;;;15.47;36.70;101482.19;4413728;32;19950;-50
2021/03/06 03:27:27;;;;;;;;;;;;;;;15.52;36.58;101477.19;4411442;32;19955;-52
2021/03/06 03:29:53;;;;;;;;;;;;;;;15.53;36.55;101484.25;4415040;32;20001;-48
2021/03/06 03:32:19;;;;;;;;;;;;;;;15.44;36.73;101479.44;4413313;32;20002;-47
2021/03/06 03:34:45;;;;;;;;;;;;;;;15.39;36.79;101481.81;4413674;32;19995;-52
2021/03/06 03:37:11;;;;;;;;;;;;;;;15.43;36.66;101486.38;4413373;32;19958;-51
2021/03/06 03:39:37;;;;;;;;;;;;;;;15.49;36.63;101484.87;4414795;32;19997;-49
2021/03/06 03:42:03;;;;;;;;;;;;;;;15.47;36.62;101482.19;4412695;32;19977;-48
2021/03/06 03:44:29;;;;;;;;;;;;;;;15.51;36.56;101488.50;4413895;32;20299;-50
2021/03/06 03:46:55;;;;;;;;;;;;;;;15.41;36.72;101485.41;4413317;32;19966;-50
2021/03/06 03:49:21;;;;;;;;;;;;;;;15.41;36.67;101488.03;4413083;32;20003;-51
2021/03/06 03:51:47;;;;;;;;;;;;;;;15.45;36.59;101487.37;4414293;32;19954;-52
2021/03/06 03:54:12;;;;;;;;;;;;;;;15.36;36.71;101489.50;4413457;32;20008;-51
2021/03/06 03:56:38;;;;;;;;;;;;;;;15.40;36.68;101490.56;4413001;32;19972;-52
2021/03/06 03:59:04;;;;;;;;;;;;;;;15.33;36.75;101489.38;4412914;32;20003;-49
2021/03/06 04:01:30;;;;;;;;;;;;;;;15.35;36.72;101485.09;4413712;32;20058;-50
2021/03/06 04:03:56;;;;;;;;;;;;;;;15.44;36.56;101489.94;4412971;32;19954;-46
2021/03/06 04:06:22;;;;;;;;;;;;;;;15.35;36.64;101492.97;4412956;32;19953;-52
2021/03/06 04:08:48;;;;;;;;;;;;;;;15.21;36.89;101489.66;4413307;32;19958;-49
2021/03/06 04:11:14;;;;;;;;;;;;;;;15.22;36.91;101477.41;4413130;32;20378;-47
2021/03/06 04:13:40;;;;;;;;;;;;;;;15.33;36.73;101481.50;4413729;32;20244;-48
2021/03/06 04:16:06;;;;;;;;;;;;;;;15.24;36.80;101486.25;4413851;32;19998;-50
2021/03/06 04:18:32;;;;;;;;;;;;;;;15.29;36.71;101490.94;4411421;32;19992;-48
2021/03/06 04:20:58;;;;;;;;;;;;;;;15.24;36.79;101483.63;4413956;32;19968;-50
2021/03/06 04:23:24;;;;;;;;;;;;;;;15.12;37.03;101492.69;4413358;32;20380;-50
2021/03/06 04:25:50;;;;;;;;;;;;;;;15.03;37.21;101484.34;4412650;32;19958;-51
2021/03/06 04:28:15;;;;;;;;;;;;;;;15.18;36.91;101482.50;4412801;32;19965;-52
2021/03/06 04:30:41;;;;;;;;;;;;;;;15.32;36.60;101487.56;4413206;32;20007;-49
2021/03/06 04:33:07;;;;;;;;;;;;;;;15.24;36.72;101491.50;4407903;32;19976;-50
2021/03/06 04:35:33;;;;;;;;;;;;;;;15.23;36.74;101488.00;4414041;32;19970;-48
2021/03/06 04:37:59;;;;;;;;;;;;;;;15.17;36.85;101491.22;4413281;32;20366;-51
2021/03/06 04:40:25;;;;;;;;;;;;;;;15.23;36.74;101494.97;4412245;32;19981;-53
2021/03/06 04:42:51;;;;;;;;;;;;;;;15.30;36.56;101502.34;4413159;32;19958;-52
2021/03/06 04:45:17;;;;;;;;;;;;;;;15.31;36.55;101501.50;4412932;32;20486;-51
2021/03/06 04:47:42;;;;;;;;;;;;;;;15.21;36.70;101505.41;4410823;32;19995;-49
2021/03/06 04:50:08;;;;;;;;;;;;;;;15.13;36.83;101499.75;4408283;32;19958;-47
2021/03/06 04:52:34;;;;;;;;;;;;;;;15.20;36.76;101497.44;4414215;32;19950;-49
2021/03/06 04:55:00;;;;;;;;;;;;;;;15.25;36.62;101506.44;4413236;32;20336;-48
2021/03/06 04:57:26;;;;;;;;;;;;;;;15.18;36.70;101505.22;4413942;32;19992;-50
2021/03/06 04:59:52;;;;;;;;;;;;;;;15.15;36.77;101505.06;4420339;32;19986;-51
2021/03/06 05:02:18;;;;;;;;;;;;;;;15.44;36.18;101511.81;4415471;32;19950;-50
2021/03/06 05:04:44;;;;;;;;;;;;;;;15.26;36.52;101505.63;4419096;32;19968;-47
2021/03/06 05:07:10;;;;;;;;;;;;;;;15.14;36.72;101496.31;4414668;32;20344;-48
2021/03/06 05:09:36;;;;;;;;;;;;;;;15.17;36.70;101500.78;4417596;32;19980;-47
2021/03/06 05:12:02;;;;;;;;;;;;;;;15.25;36.57;101501.19;4415483;32;19949;-50
2021/03/06 05:14:27;;;;;;;;;;;;;;;15.30;36.39;101494.47;4419883;32;20517;-51
2021/03/06 05:16:53;;;;;;;;;;;;;;;15.37;36.19;101501.84;4414514;32;19990;-50
2021/03/06 05:19:19;;;;;;;;;;;;;;;15.39;36.10;101497.56;4410300;32;19985;-51
2021/03/06 05:21:45;;;;;;;;;;;;;;;15.44;36.02;101498.69;4405583;32;20057;-50
2021/03/06 05:24:11;;;;;;;;;;;;;;;15.50;35.84;101498.09;4415537;32;19958;-48
2021/03/06 05:26:37;;;;;;;;;;;;;;;15.46;35.83;101507.53;4419824;32;20374;-49
2021/03/06 05:29:03;;;;;;;;;;;;;;;15.42;35.97;101509.94;4418588;32;20004;-47
2021/03/06 05:31:29;;;;;;;;;;;;;;;15.53;35.79;101518.37;4420571;32;19958;-50
2021/03/06 05:33:55;;;;;;;;;;;;;;;15.39;36.06;101515.94;4421022;32;20598;-50
2021/03/06 05:36:21;;;;;;;;;;;;;;;15.52;35.87;101519.19;4421216;32;19938;-50
2021/03/06 05:38:47;;;;;;;;;;;;;;;15.41;36.01;101519.53;4424344;32;19953;-51
2021/03/06 05:41:12;;;;;;;;;;;;;;;15.42;35.99;101526.59;4424544;32;19980;-48
2021/03/06 05:43:38;;;;;;;;;;;;;;;15.41;36.00;101526.50;4424210;32;19957;-50
2021/03/06 05:46:04;;;;;;;;;;;;;;;15.32;36.12;101526.94;4427153;32;19969;-51
2021/03/06 05:48:30;;;;;;;;;;;;;;;15.26;36.23;101529.25;4424182;32;20312;-48
2021/03/06 05:50:56;;;;;;;;;;;;;;;15.30;36.18;101532.09;4427241;32;20353;-50
2021/03/06 05:53:22;;;;;;;;;;;;;;;15.36;36.05;101523.62;4426379;32;20017;-49
2021/03/06 05:55:48;;;;;;;;;;;;;;;15.35;36.07;101523.56;4424718;32;19969;-50
2021/03/06 05:58:14;;;;;;;;;;;;;;;15.38;36.01;101529.91;4428491;32;20020;-46
2021/03/06 06:00:40;;;;;;;;;;;;;;;15.39;35.96;101523.81;4425180;32;19950;-50
2021/03/06 06:03:06;;;;;;;;;;;;;;;15.46;35.83;101525.91;4423233;32;19977;-49
2021/03/06 06:05:31;;;;;;;;;;;;;;;15.36;35.93;101526.25;4423631;32;19996;-47
2021/03/06 06:07:57;;;;;;;;;;;;;;;15.29;36.06;101524.16;4425352;32;20377;-49
2021/03/06 06:10:23;;;;;;;;;;;;;;;15.21;36.23;101525.47;4424428;32;20030;-51
2021/03/06 06:12:49;;;;;;;;;;;;;;;15.17;36.27;101524.41;4425730;32;19961;-50
2021/03/06 06:15:15;;;;;;;;;;;;;;;15.13;36.32;101518.13;4424794;32;19961;-49
2021/03/06 06:17:41;;;;;;;;;;;;;;;15.23;36.16;101519.50;4422678;32;19976;-48
2021/03/06 06:20:07;;;;;;;;;;;;;;;15.21;36.18;101517.59;4414714;32;20738;-46
2021/03/06 06:22:33;;;;;;;;;;;;;;;15.15;36.30;101511.22;4414477;32;19993;-49
2021/03/06 06:24:59;;;;;;;;;;;;;;;15.21;36.16;101514.97;4413186;32;20302;-49
2021/03/06 06:27:25;;;;;;;;;;;;;;;15.17;36.26;101509.59;4419318;32;19978;-50
2021/03/06 06:29:51;;;;;;;;;;;;;;;15.17;36.31;101514.84;4418944;32;20007;-47
2021/03/06 06:32:17;;;;;;;;;;;;;;;15.27;36.10;101515.31;4417635;32;19972;-48
2021/03/06 06:34:43;;;;;;;;;;;;;;;15.19;36.26;101517.53;4422251;32;20748;-47
2021/03/06 06:37:09;;;;;;;;;;;;;;;15.32;36.12;101524.31;4417767;32;19950;-48
2021/03/06 06:39:35;;;;;;;;;;;;;;;15.33;36.20;101523.47;4421110;32;19981;-48
2021/03/06 06:42:01;;;;;;;;;;;;;;;15.39;36.04;101536.94;4421848;32;19961;-51
2021/03/06 06:44:27;;;;;;;;;;;;;;;15.45;35.87;101542.50;4418163;32;20323;-49
2021/03/06 06:46:53;;;;;;;;;;;;;;;15.43;35.89;101538.91;4415896;32;20009;-48
2021/03/06 06:49:19;;;;;;;;;;;;;;;15.43;35.86;101544.16;4418139;32;20016;-48
2021/03/06 06:51:44;;;;;;;;;;;;;;;15.46;35.79;101539.03;4419787;32;19957;-49
2021/03/06 06:54:10;;;;;;;;;;;;;;;15.42;35.91;101544.97;4409795;32;19954;-49
2021/03/06 06:56:36;;;;;;;;;;;;;;;15.47;35.80;101547.84;4404808;32;20355;-51
2021/03/06 06:59:02;;;;;;;;;;;;;;;15.52;35.77;101553.31;4417085;32;20343;-51
2021/03/06 07:01:28;;;;;;;;;;;;;;;15.48;35.77;101559.22;4416837;32;20039;-49
2021/03/06 07:03:54;;;;;;;;;;;;;;;15.51;35.82;101556.78;4411659;32;19953;-50
2021/03/06 07:06:20;;;;;;;;;;;;;;;15.51;35.72;101555.03;4416903;32;19992;-51
2021/03/06 07:08:46;;;;;;;;;;;;;;;15.35;36.01;101560.31;4416003;32;19962;-52
2021/03/06 07:11:12;;;;;;;;;;;;;;;15.43;35.89;101565.16;4426421;32;20031;-50
2021/03/06 07:13:38;;;;;;;;;;;;;;;15.36;36.06;101564.75;4428914;32;19957;-49
2021/03/06 07:16:04;;;;;;;;;;;;;;;15.43;35.92;101566.84;4415584;32;20026;-49
2021/03/06 07:18:30;;;;;;;;;;;;;;;15.47;35.85;101560.97;4412286;32;20394;-50
2021/03/06 07:20:56;;;;;;;;;;;;;;;15.49;35.86;101558.41;4411574;32;20057;-51
2021/03/06 07:23:22;;;;;;;;;;;;;;;15.58;35.64;101569.37;4413548;32;19992;-49
2021/03/06 07:25:48;;;;;;;;;;;;;;;15.52;35.73;101571.69;4412637;32;19962;-53
2021/03/06 07:28:15;;;;;;;;;;;;;;;15.49;35.76;101568.91;4423275;32;20022;-51
2021/03/06 07:30:41;;;;;;;;;;;;;;;15.53;35.73;101565.63;4412466;32;19981;-49
2021/03/06 07:33:07;;;;;;;;;;;;;;;15.43;35.89;101569.47;4411028;32;19958;-53
2021/03/06 07:35:33;;;;;;;;;;;;;;;15.43;35.86;101565.16;4411426;32;21181;-49
2021/03/06 07:37:59;;;;;;;;;;;;;;;15.51;35.79;101568.16;4403369;32;19946;-51
2021/03/06 07:40:25;;;;;;;;;;;;;;;15.59;35.65;101566.84;4412298;32;19950;-47
2021/03/06 07:42:52;;;;;;;;;;;;;;;15.67;35.52;101569.84;4412622;32;19980;-48
2021/03/06 07:45:17;;;;;;;;;;;;;;;15.62;35.54;101573.06;4415756;32;19980;-50
2021/03/06 07:47:44;;;;;;;;;;;;;;;15.58;35.63;101569.37;4409039;32;19970;-50
2021/03/06 07:50:10;;;;;;;;;;;;;;;15.63;35.60;101578.41;4412055;32;19969;-50
2021/03/06 07:52:36;;;;;;;;;;;;;;;15.70;35.49;101584.88;4413892;32;19958;-53
2021/03/06 07:55:02;;;;;;;;;;;;;;;15.77;35.36;101581.72;4413232;32;19960;-51
2021/03/06 07:57:28;;;;;;;;;;;;;;;15.62;35.52;101579.25;4411565;32;19993;-51
2021/03/06 07:59:53;;;;;;;;;;;;;;;15.54;35.73;101580.56;4412946;32;20417;-51
2021/03/06 08:02:19;;;;;;;;;;;;;;;15.51;35.84;101586.53;4415362;32;19950;-48
2021/03/06 08:04:45;;;;;;;;;;;;;;;15.53;35.78;101582.25;4428474;32;19998;-49
2021/03/06 08:07:11;;;;;;;;;;;;;;;15.67;35.47;101582.06;4413146;32;19973;-49
2021/03/06 08:09:37;;;;;;;;;;;;;;;15.68;35.56;101576.00;4404503;32;19972;-50
2021/03/06 08:12:03;;;;;;;;;;;;;;;15.54;35.73;101578.81;4413266;32;19977;-51
2021/03/06 08:14:29;;;;;;;;;;;;;;;15.42;36.00;101579.09;4412229;32;20006;-48
2021/03/06 08:16:55;;;;;;;;;;;;;;;15.59;35.77;101589.56;4418289;32;20358;-47
2021/03/06 08:19:21;;;;;;;;;;;;;;;15.60;35.74;101575.59;4416910;32;19988;-49
2021/03/06 08:21:47;;;;;;;;;;;;;;;15.66;35.61;101583.81;4409812;32;20346;-45
2021/03/06 08:24:18;;;;;;;;;;;;;;;15.64;35.74;101585.47;4398873;32;19997;-46
2021/03/06 08:26:51;;;;;;;;;;;;;;;15.65;35.69;101594.22;4409162;32;20332;-49
2021/03/06 08:29:17;;;;;;;;;;;;;;;15.61;35.77;101590.53;4413077;32;19977;-48
2021/03/06 08:31:43;;;;;;;;;;;;;;;15.57;35.78;101593.84;4412993;32;19969;-47
2021/03/06 08:34:09;;;;;;;;;;;;;;;15.61;35.80;101590.53;4412421;32;20023;-48
2021/03/06 08:36:35;;;;;;;;;;;;;;;15.71;35.55;101587.56;4407824;32;19954;-45
2021/03/06 08:39:04;;;;;;;;;;;;;;;15.74;35.54;101590.38;4404029;32;20008;-45
2021/03/06 08:41:29;;;;;;;;;;;;;;;15.72;35.63;101588.47;4420491;32;19958;-48
2021/03/06 08:43:55;;;;;;;;;;;;;;;15.78;35.53;101594.03;4416178;32;19994;-47
2021/03/06 08:46:21;;;;;;;;;;;;;;;15.78;35.43;101586.16;4404781;32;19954;-44
2021/03/06 08:48:47;;;;;;;;;;;;;;;15.94;35.23;101590.47;4425500;32;20394;-50
2021/03/06 08:51:13;;;;;;;;;;;;;;;15.93;35.15;101587.81;4425014;32;19998;-44
2021/03/06 08:53:39;;;;;;;;;;;;;;;15.95;35.12;101594.91;4425982;32;19958;-45
2021/03/06 08:56:05;;;;;;;;;;;;;;;15.95;35.17;101587.03;4423172;32;20282;-45
2021/03/06 08:58:31;;;;;;;;;;;;;;;15.87;35.31;101589.25;4423836;32;19958;-45
2021/03/06 09:00:57;;;;;;;;;;;;;;;15.93;35.17;101588.69;4425288;32;19999;-48
2021/03/06 09:03:25;;;;;;;;;;;;;;;15.87;35.25;101588.34;4424079;32;20114;-46
2021/03/06 09:05:51;;;;;;;;;;;;;;;15.95;35.14;101583.53;4423878;32;20007;-47
2021/03/06 09:08:17;;;;;;;;;;;;;;;15.85;35.38;101590.91;4422033;32;20021;-49
2021/03/06 09:10:43;;;;;;;;;;;;;;;15.86;35.23;101589.16;4423468;32;20004;-48
2021/03/06 09:13:12;;;;;;;;;;;;;;;15.96;35.22;101590.56;4422824;32;19957;-49
2021/03/06 09:15:38;;;;;;;;;;;;;;;15.97;35.21;101585.38;4420918;32;19988;-50
2021/03/06 09:18:04;;;;;;;;;;;;;;;16.04;35.07;101585.69;4423637;32;20037;-49
2021/03/06 09:20:30;;;;;;;;;;;;;;;15.98;35.12;101584.53;4428671;32;20010;-46
2021/03/06 09:22:56;;;;;;;;;;;;;;;15.95;35.26;101576.53;4426990;32;19984;-46
2021/03/06 09:25:21;;;;;;;;;;;;;;;15.99;35.18;101578.50;4431013;32;19982;-50
2021/03/06 09:27:48;;;;;;;;;;;;;;;15.96;35.22;101580.94;4426605;32;19957;-51
2021/03/06 09:30:14;;;;;;;;;;;;;;;16.06;35.16;101576.16;4426397;32;20003;-50
2021/03/06 09:32:43;;;;;;;;;;;;;;;16.05;35.11;101577.00;4424933;32;20010;-49
2021/03/06 09:35:09;;;;;;;;;;;;;;;16.02;35.18;101578.66;4424660;32;20013;-52
2021/03/06 09:37:35;;;;;;;;;;;;;;;16.06;35.15;101579.72;4417321;32;19992;-49
2021/03/06 09:40:01;;;;;;;;;;;;;;;16.12;35.03;101571.22;4414065;32;19962;-52
2021/03/06 09:42:27;;;;;;;;;;;;;;;16.14;35.00;101573.06;4411788;32;19980;-53
2021/03/06 09:44:53;;;;;;;;;;;;;;;16.12;35.01;101574.72;4410869;32;20004;-48
2021/03/06 09:47:19;;;;;;;;;;;;;;;15.85;35.49;101574.22;4405065;32;19951;-48
2021/03/06 09:49:46;;;;;;;;;;;;;;;16.05;35.26;101569.09;4399007;32;20298;-44
2021/03/06 09:52:12;;;;;;;;;;;;;;;16.24;34.71;101563.94;4403401;32;20002;-45
2021/03/06 09:54:38;;;;;;;;;;;;;;;16.27;34.66;101569.34;4399922;32;20334;-46
2021/03/06 09:57:06;;;;;;;;;;;;;;;16.24;34.67;101566.56;4400933;32;19972;-48
2021/03/06 09:59:32;;;;;;;;;;;;;;;16.27;34.41;101576.31;4402035;32;19966;-48
2021/03/06 10:01:58;;;;;;;;;;;;;;;16.26;34.57;101567.53;4400411;32;19969;-48
2021/03/06 10:04:24;;;;;;;;;;;;;;;16.28;34.53;101560.62;4418028;32;20577;-45
2021/03/06 10:06:49;;;;;;;;;;;;;;;16.33;34.55;101562.56;4412912;32;19999;-50
2021/03/06 10:09:15;;;;;;;;;;;;;;;16.34;34.43;101570.53;4420238;32;19957;-47
2021/03/06 10:11:41;;;;;;;;;;;;;;;16.35;34.45;101567.06;4429535;32;19966;-48
2021/03/06 10:14:07;;;;;;;;;;;;;;;16.32;34.24;101561.66;4415525;32;19962;-47
2021/03/06 10:16:33;;;;;;;;;;;;;;;16.36;34.20;101560.06;4415561;32;20018;-47
2021/03/06 10:18:59;;;;;;;;;;;;;;;16.38;34.36;101558.44;4415397;32;19954;-44
2021/03/06 10:21:25;;;;;;;;;;;;;;;16.39;34.29;101558.50;4409040;32;19950;-45
2021/03/06 10:23:51;;;;;;;;;;;;;;;16.39;34.35;101558.50;4416530;32;20347;-47
2021/03/06 10:26:17;;;;;;;;;;;;;;;16.41;34.33;101564.72;4418226;32;19966;-46
2021/03/06 10:28:42;;;;;;;;;;;;;;;16.38;34.32;101550.56;4410151;32;19997;-49
2021/03/06 10:31:08;;;;;;;;;;;;;;;16.43;34.32;101543.78;4408320;32;19969;-48
2021/03/06 10:33:35;;;;;;;;;;;;;;;16.37;34.43;101547.00;4414787;32;19962;-51
2021/03/06 10:36:00;;;;;;;;;;;;;;;16.42;34.41;101544.59;4414884;32;20014;-45
2021/03/06 10:38:26;;;;;;;;;;;;;;;16.39;34.42;101541.84;4411391;32;19985;-46
2021/03/06 10:40:52;;;;;;;;;;;;;;;16.46;34.34;101543.91;4417478;32;20080;-47
2021/03/06 10:43:18;;;;;;;;;;;;;;;16.39;34.60;101537.47;4422147;32;19988;-46
2021/03/06 10:45:44;;;;;;;;;;;;;;;16.41;34.49;101529.66;4413164;32;20354;-48
2021/03/06 10:48:10;;;;;;;;;;;;;;;16.39;34.44;101537.47;4412799;32;20001;-47
2021/03/06 10:50:38;;;;;;;;;;;;;;;16.34;34.73;101532.81;4410598;32;20035;-50
2021/03/06 10:53:04;;;;;;;;;;;;;;;16.39;34.68;101531.31;4410530;32;20008;-47
2021/03/06 10:55:30;;;;;;;;;;;;;;;16.42;34.52;101536.72;4414775;32;20025;-47
2021/03/06 10:57:55;;;;;;;;;;;;;;;16.46;34.38;101528.13;4412142;32;19962;-48
2021/03/06 11:00:21;;;;;;;;;;;;;;;16.48;34.46;101530.84;4418841;32;19958;-47
2021/03/06 11:02:47;;;;;;;;;;;;;;;16.51;34.46;101529.25;4428985;32;19954;-46
2021/03/06 11:05:13;;;;;;;;;;;;;;;16.52;34.53;101522.25;4413894;32;19990;-44
2021/03/06 11:07:39;;;;;;;;;;;;;;;16.50;34.57;101518.66;4413461;32;19954;-46
2021/03/06 11:10:05;;;;;;;;;;;;;;;16.45;34.59;101513.19;4407912;32;19954;-47
2021/03/06 11:12:31;;;;;;;;;;;;;;;16.50;34.70;101516.94;4413180;32;19989;-44
2021/03/06 11:14:57;;;;;;;;;;;;;;;16.63;34.40;101521.03;4414713;32;19972;-49
2021/03/06 11:17:23;;;;;;;;;;;;;;;16.52;34.50;101517.91;4428101;32;20055;-46
2021/03/06 11:19:49;;;;;;;;;;;;;;;16.57;34.51;101524.28;4416142;32;20011;-45
2021/03/06 11:22:14;;;;;;;;;;;;;;;16.59;34.44;101513.84;4409251;32;19976;-45
2021/03/06 11:24:40;;;;;;;;;;;;;;;16.63;34.37;101517.50;4411688;32;19954;-46
2021/03/06 11:27:06;;;;;;;;;;;;;;;16.62;34.36;101515.72;4409952;32;19958;-48
2021/03/06 11:29:32;;;;;;;;;;;;;;;16.65;34.42;101514.09;4411234;32;19946;-44
2021/03/06 11:31:58;;;;;;;;;;;;;;;16.70;34.35;101509.97;4413354;32;19980;-44
2021/03/06 11:34:24;;;;;;;;;;;;;;;16.65;34.42;101511.47;4410462;32;19986;-44
2021/03/06 11:36:50;;;;;;;;;;;;;;;16.70;34.36;101501.16;4411744;32;19957;-45
2021/03/06 11:39:16;;;;;;;;;;;;;;;16.66;34.34;101500.12;4412564;32;19958;-48
2021/03/06 11:41:42;;;;;;;;;;;;;;;16.65;34.29;101511.47;4411778;32;20373;-48
2021/03/06 11:44:08;;;;;;;;;;;;;;;16.61;34.59;101506.03;4412594;32;19962;-47
2021/03/06 11:46:34;;;;;;;;;;;;;;;16.56;34.27;101493.53;4411164;32;20010;-46
2021/03/06 11:49:00;;;;;;;;;;;;;;;16.62;34.29;101489.41;4411420;32;20580;-49
2021/03/06 11:51:25;;;;;;;;;;;;;;;16.66;34.28;101488.72;4412347;32;19954;-44
2021/03/06 11:53:51;;;;;;;;;;;;;;;16.63;34.40;101493.84;4406939;32;20331;-48
2021/03/06 11:56:17;;;;;;;;;;;;;;;16.65;34.48;101493.06;4413775;32;20002;-45
2021/03/06 11:58:44;;;;;;;;;;;;;;;16.67;34.28;101485.25;4409267;32;20016;-49
2021/03/06 12:01:09;;;;;;;;;;;;;;;16.66;34.53;101479.06;4414526;32;19973;-48
2021/03/06 12:03:35;;;;;;;;;;;;;;;16.71;34.47;101472.31;4412406;32;19962;-45
2021/03/06 12:06:01;;;;;;;;;;;;;;;16.75;34.29;101473.34;4418444;32;19967;-45
2021/03/06 12:08:27;;;;;;;;;;;;;;;16.80;34.17;101461.28;4414984;32;19954;-47
2021/03/06 12:10:53;;;;;;;;;;;;;;;16.76;34.36;101462.00;4416288;32;20445;-46
2021/03/06 12:13:19;;;;;;;;;;;;;;;16.72;34.38;101463.59;4412185;32;19954;-47
2021/03/06 12:15:45;;;;;;;;;;;;;;;16.74;34.34;101461.03;4414795;32;19958;-46
2021/03/06 12:18:11;;;;;;;;;;;;;;;16.82;34.27;101449.09;4412386;32;20032;-46
2021/03/06 12:20:37;;;;;;;;;;;;;;;16.82;34.41;101443.84;4412955;32;20006;-46
2021/03/06 12:23:03;;;;;;;;;;;;;;;16.90;34.28;101443.28;4411786;32;20304;-46
2021/03/06 12:25:28;;;;;;;;;;;;;;;16.85;34.24;101438.75;4413958;32;19955;-50
2021/03/06 12:27:54;;;;;;;;;;;;;;;16.84;34.33;101428.12;4412275;32;20698;-47